sensor_id;sensor_type;location;lat;lon;timestamp;temperature;humidity
11615;DHT22;5863;52.832;4.758;2022-08-07T00:01:56;14.80;99.90
11615;DHT22;5863;52.832;4.758;2022-08-07T00:04:22;14.80;99.90
11615;DHT22;5863;52.832;4.758;2022-08-07T00:06:49;14.80;99.90
11615;DHT22;5863;52.832;4.758;2022-08-07T00:09:16;14.80;99.90
11615;DHT22;5863;52.832;4.758;2022-08-07T00:11:43;14.70;99.90
11615;DHT22;5863;52.832;4.758;2022-08-07T00:14:10;14.70;99.90
11615;DHT22;5863;52.832;4.758;2022-08-07T00:16:36;14.70;99.90
11615;DHT22;5863;52.832;4.758;2022-08-07T00:19:04;14.80;99.90
11615;DHT22;5863;52.832;4.758;2022-08-07T00:21:31;14.70;99.90
11615;DHT22;5863;52.832;4.758;2022-08-07T00:23:58;14.70;99.90
11615;DHT22;5863;52.832;4.758;2022-08-07T00:26:25;14.70;99.90
11615;DHT22;5863;52.832;4.758;2022-08-07T00:28:51;14.70;99.90
11615;DHT22;5863;52.832;4.758;2022-08-07T00:31:18;14.60;99.90
11615;DHT22;5863;52.832;4.758;2022-08-07T00:33:45;14.60;99.90
11615;DHT22;5863;52.832;4.758;2022-08-07T00:36:13;14.60;99.90
11615;DHT22;5863;52.832;4.758;2022-08-07T00:38:39;14.60;99.90
11615;DHT22;5863;52.832;4.758;2022-08-07T00:41:07;14.60;99.90
11615;DHT22;5863;52.832;4.758;2022-08-07T00:43:33;14.60;99.90
11615;DHT22;5863;52.832;4.758;2022-08-07T00:46:01;14.60;99.90
11615;DHT22;5863;52.832;4.758;2022-08-07T00:48:28;14.60;99.90
11615;DHT22;5863;52.832;4.758;2022-08-07T00:50:55;14.60;99.90
11615;DHT22;5863;52.832;4.758;2022-08-07T00:53:23;14.50;99.90
11615;DHT22;5863;52.832;4.758;2022-08-07T00:55:50;14.50;99.90
11615;DHT22;5863;52.832;4.758;2022-08-07T00:58:20;14.50;99.90
11615;DHT22;5863;52.832;4.758;2022-08-07T01:00:47;14.40;99.90
11615;DHT22;5863;52.832;4.758;2022-08-07T01:03:15;14.40;99.90
11615;DHT22;5863;52.832;4.758;2022-08-07T01:05:42;14.40;99.90
11615;DHT22;5863;52.832;4.758;2022-08-07T01:08:09;14.30;99.90
11615;DHT22;5863;52.832;4.758;2022-08-07T01:10:38;14.30;99.90
11615;DHT22;5863;52.832;4.758;2022-08-07T01:13:07;14.40;99.90
11615;DHT22;5863;52.832;4.758;2022-08-07T01:15:35;14.30;99.90
11615;DHT22;5863;52.832;4.758;2022-08-07T01:18:02;14.30;99.90
11615;DHT22;5863;52.832;4.758;2022-08-07T01:20:33;14.20;99.90
11615;DHT22;5863;52.832;4.758;2022-08-07T01:23:03;14.20;99.90
11615;DHT22;5863;52.832;4.758;2022-08-07T01:25:31;14.20;99.90
11615;DHT22;5863;52.832;4.758;2022-08-07T01:27:58;14.20;99.90
11615;DHT22;5863;52.832;4.758;2022-08-07T01:30:25;14.30;99.90
11615;DHT22;5863;52.832;4.758;2022-08-07T01:32:53;14.30;99.90
11615;DHT22;5863;52.832;4.758;2022-08-07T01:35:20;14.30;99.90
11615;DHT22;5863;52.832;4.758;2022-08-07T01:37:48;14.20;99.90
11615;DHT22;5863;52.832;4.758;2022-08-07T01:40:18;14.20;99.90
11615;DHT22;5863;52.832;4.758;2022-08-07T01:42:46;14.20;99.90
11615;DHT22;5863;52.832;4.758;2022-08-07T01:45:13;14.20;99.90
11615;DHT22;5863;52.832;4.758;2022-08-07T01:47:40;14.10;99.90
11615;DHT22;5863;52.832;4.758;2022-08-07T01:50:07;14.10;99.90
11615;DHT22;5863;52.832;4.758;2022-08-07T01:52:36;14.10;99.90
11615;DHT22;5863;52.832;4.758;2022-08-07T01:55:07;14.00;99.90
11615;DHT22;5863;52.832;4.758;2022-08-07T01:57:38;14.00;99.90
11615;DHT22;5863;52.832;4.758;2022-08-07T02:00:11;14.00;99.90
11615;DHT22;5863;52.832;4.758;2022-08-07T02:02:42;14.00;99.90
11615;DHT22;5863;52.832;4.758;2022-08-07T02:05:13;13.90;99.90
11615;DHT22;5863;52.832;4.758;2022-08-07T02:07:46;13.90;99.90
11615;DHT22;5863;52.832;4.758;2022-08-07T02:10:15;14.00;99.90
11615;DHT22;5863;52.832;4.758;2022-08-07T02:12:45;14.00;99.90
11615;DHT22;5863;52.832;4.758;2022-08-07T02:15:14;13.90;99.90
11615;DHT22;5863;52.832;4.758;2022-08-07T02:17:42;13.90;99.90
11615;DHT22;5863;52.832;4.758;2022-08-07T02:20:10;13.90;99.90
11615;DHT22;5863;52.832;4.758;2022-08-07T02:22:39;13.90;99.90
11615;DHT22;5863;52.832;4.758;2022-08-07T02:25:08;13.90;99.90
11615;DHT22;5863;52.832;4.758;2022-08-07T02:27:36;13.90;99.90
11615;DHT22;5863;52.832;4.758;2022-08-07T02:30:07;13.90;99.90
11615;DHT22;5863;52.832;4.758;2022-08-07T02:32:35;13.90;99.90
11615;DHT22;5863;52.832;4.758;2022-08-07T02:35:03;13.90;99.90
11615;DHT22;5863;52.832;4.758;2022-08-07T02:37:32;13.80;99.90
11615;DHT22;5863;52.832;4.758;2022-08-07T02:40:02;13.90;99.90
11615;DHT22;5863;52.832;4.758;2022-08-07T02:42:30;13.90;99.90
11615;DHT22;5863;52.832;4.758;2022-08-07T02:44:59;13.80;99.90
11615;DHT22;5863;52.832;4.758;2022-08-07T02:47:28;13.70;99.90
11615;DHT22;5863;52.832;4.758;2022-08-07T02:49:55;13.70;99.90
11615;DHT22;5863;52.832;4.758;2022-08-07T02:52:26;13.70;99.90
11615;DHT22;5863;52.832;4.758;2022-08-07T02:54:56;13.70;99.90
11615;DHT22;5863;52.832;4.758;2022-08-07T02:57:24;13.70;99.90
11615;DHT22;5863;52.832;4.758;2022-08-07T02:59:51;13.70;99.90
11615;DHT22;5863;52.832;4.758;2022-08-07T03:02:19;13.70;99.90
11615;DHT22;5863;52.832;4.758;2022-08-07T03:04:48;13.70;99.90
11615;DHT22;5863;52.832;4.758;2022-08-07T03:07:18;13.70;99.90
11615;DHT22;5863;52.832;4.758;2022-08-07T03:09:45;13.70;99.90
11615;DHT22;5863;52.832;4.758;2022-08-07T03:12:12;13.70;99.90
11615;DHT22;5863;52.832;4.758;2022-08-07T03:14:40;13.70;99.90
11615;DHT22;5863;52.832;4.758;2022-08-07T03:17:08;13.70;99.90
11615;DHT22;5863;52.832;4.758;2022-08-07T03:19:35;13.70;99.90
11615;DHT22;5863;52.832;4.758;2022-08-07T03:22:09;13.70;99.90
11615;DHT22;5863;52.832;4.758;2022-08-07T03:24:36;13.60;99.90
11615;DHT22;5863;52.832;4.758;2022-08-07T03:27:05;13.60;99.90
11615;DHT22;5863;52.832;4.758;2022-08-07T03:29:39;13.60;99.90
11615;DHT22;5863;52.832;4.758;2022-08-07T03:32:08;13.60;99.90
11615;DHT22;5863;52.832;4.758;2022-08-07T03:34:37;13.60;99.90
11615;DHT22;5863;52.832;4.758;2022-08-07T03:37:05;13.50;99.90
11615;DHT22;5863;52.832;4.758;2022-08-07T03:39:36;13.50;99.90
11615;DHT22;5863;52.832;4.758;2022-08-07T03:42:04;13.50;99.90
11615;DHT22;5863;52.832;4.758;2022-08-07T03:44:33;13.60;99.90
11615;DHT22;5863;52.832;4.758;2022-08-07T03:47:02;13.50;99.90
11615;DHT22;5863;52.832;4.758;2022-08-07T03:49:30;13.50;99.90
11615;DHT22;5863;52.832;4.758;2022-08-07T03:51:58;13.40;99.90
11615;DHT22;5863;52.832;4.758;2022-08-07T03:54:25;13.40;99.90
11615;DHT22;5863;52.832;4.758;2022-08-07T03:56:57;13.40;99.90
11615;DHT22;5863;52.832;4.758;2022-08-07T03:59:25;13.50;99.90
11615;DHT22;5863;52.832;4.758;2022-08-07T04:01:59;13.40;99.90
11615;DHT22;5863;52.832;4.758;2022-08-07T04:04:27;13.40;99.90
11615;DHT22;5863;52.832;4.758;2022-08-07T04:06:53;13.50;99.90
11615;DHT22;5863;52.832;4.758;2022-08-07T04:09:20;13.50;99.90
11615;DHT22;5863;52.832;4.758;2022-08-07T04:11:48;13.50;99.90
11615;DHT22;5863;52.832;4.758;2022-08-07T04:14:17;13.40;99.90
11615;DHT22;5863;52.832;4.758;2022-08-07T04:16:44;13.40;99.90
11615;DHT22;5863;52.832;4.758;2022-08-07T04:19:11;13.30;99.90
11615;DHT22;5863;52.832;4.758;2022-08-07T04:21:38;13.40;99.90
11615;DHT22;5863;52.832;4.758;2022-08-07T04:24:05;13.40;99.90
11615;DHT22;5863;52.832;4.758;2022-08-07T04:26:35;13.40;99.90
11615;DHT22;5863;52.832;4.758;2022-08-07T04:29:02;13.40;99.90
11615;DHT22;5863;52.832;4.758;2022-08-07T04:31:31;13.40;99.90
11615;DHT22;5863;52.832;4.758;2022-08-07T04:33:59;13.40;99.90
11615;DHT22;5863;52.832;4.758;2022-08-07T04:36:26;13.40;99.90
11615;DHT22;5863;52.832;4.758;2022-08-07T04:38:53;13.50;99.90
11615;DHT22;5863;52.832;4.758;2022-08-07T04:41:20;13.50;99.90
11615;DHT22;5863;52.832;4.758;2022-08-07T04:43:47;13.60;99.90
11615;DHT22;5863;52.832;4.758;2022-08-07T04:46:20;13.80;99.90
11615;DHT22;5863;52.832;4.758;2022-08-07T04:48:57;14.00;99.90
11615;DHT22;5863;52.832;4.758;2022-08-07T04:51:34;14.50;99.90
11615;DHT22;5863;52.832;4.758;2022-08-07T04:54:11;14.90;99.90
11615;DHT22;5863;52.832;4.758;2022-08-07T04:56:46;15.20;99.90
11615;DHT22;5863;52.832;4.758;2022-08-07T04:59:20;15.60;99.90
11615;DHT22;5863;52.832;4.758;2022-08-07T05:01:55;15.90;99.90
11615;DHT22;5863;52.832;4.758;2022-08-07T05:04:32;16.40;99.90
11615;DHT22;5863;52.832;4.758;2022-08-07T05:07:07;16.90;99.90
11615;DHT22;5863;52.832;4.758;2022-08-07T05:09:41;17.30;99.90
11615;DHT22;5863;52.832;4.758;2022-08-07T05:12:10;17.70;99.90
11615;DHT22;5863;52.832;4.758;2022-08-07T05:14:42;18.10;99.90
11615;DHT22;5863;52.832;4.758;2022-08-07T05:17:13;18.50;99.90
11615;DHT22;5863;52.832;4.758;2022-08-07T05:19:48;18.90;99.90
11615;DHT22;5863;52.832;4.758;2022-08-07T05:22:19;19.20;99.90
11615;DHT22;5863;52.832;4.758;2022-08-07T05:24:48;19.60;99.90
11615;DHT22;5863;52.832;4.758;2022-08-07T05:27:17;20.00;99.90
11615;DHT22;5863;52.832;4.758;2022-08-07T05:29:46;20.40;99.90
11615;DHT22;5863;52.832;4.758;2022-08-07T05:32:14;20.70;99.40
11615;DHT22;5863;52.832;4.758;2022-08-07T05:34:44;21.00;99.20
11615;DHT22;5863;52.832;4.758;2022-08-07T05:37:14;21.30;98.70
11615;DHT22;5863;52.832;4.758;2022-08-07T05:39:43;21.60;97.90
11615;DHT22;5863;52.832;4.758;2022-08-07T05:42:13;21.90;97.60
11615;DHT22;5863;52.832;4.758;2022-08-07T05:44:40;22.20;97.10
11615;DHT22;5863;52.832;4.758;2022-08-07T05:47:07;22.60;96.50
11615;DHT22;5863;52.832;4.758;2022-08-07T05:49:34;22.90;95.90
11615;DHT22;5863;52.832;4.758;2022-08-07T05:52:04;23.20;95.30
11615;DHT22;5863;52.832;4.758;2022-08-07T05:54:31;23.60;94.70
11615;DHT22;5863;52.832;4.758;2022-08-07T05:56:58;23.80;94.10
11615;DHT22;5863;52.832;4.758;2022-08-07T05:59:25;24.10;93.80
11615;DHT22;5863;52.832;4.758;2022-08-07T06:01:53;24.30;93.30
11615;DHT22;5863;52.832;4.758;2022-08-07T06:04:21;24.60;93.00
11615;DHT22;5863;52.832;4.758;2022-08-07T06:06:49;25.00;92.50
11615;DHT22;5863;52.832;4.758;2022-08-07T06:09:17;25.10;91.60
11615;DHT22;5863;52.832;4.758;2022-08-07T06:11:45;25.40;91.80
11615;DHT22;5863;52.832;4.758;2022-08-07T06:14:12;25.80;91.60
11615;DHT22;5863;52.832;4.758;2022-08-07T06:16:39;26.20;90.90
11615;DHT22;5863;52.832;4.758;2022-08-07T06:19:09;26.60;90.00
11615;DHT22;5863;52.832;4.758;2022-08-07T06:21:38;26.80;89.30
11615;DHT22;5863;52.832;4.758;2022-08-07T06:24:06;27.10;88.60
11615;DHT22;5863;52.832;4.758;2022-08-07T06:26:34;27.40;87.90
11615;DHT22;5863;52.832;4.758;2022-08-07T06:29:04;27.70;86.40
11615;DHT22;5863;52.832;4.758;2022-08-07T06:31:31;28.00;85.50
11615;DHT22;5863;52.832;4.758;2022-08-07T06:33:57;28.20;85.10
11615;DHT22;5863;52.832;4.758;2022-08-07T06:36:24;28.40;84.40
11615;DHT22;5863;52.832;4.758;2022-08-07T06:38:52;28.60;82.90
11615;DHT22;5863;52.832;4.758;2022-08-07T06:41:24;28.70;81.40
11615;DHT22;5863;52.832;4.758;2022-08-07T06:43:54;29.00;80.90
11615;DHT22;5863;52.832;4.758;2022-08-07T06:46:22;29.30;79.70
11615;DHT22;5863;52.832;4.758;2022-08-07T06:48:56;29.40;79.00
11615;DHT22;5863;52.832;4.758;2022-08-07T06:51:26;29.60;78.50
11615;DHT22;5863;52.832;4.758;2022-08-07T06:53:54;29.80;78.10
11615;DHT22;5863;52.832;4.758;2022-08-07T06:56:25;29.90;77.50
11615;DHT22;5863;52.832;4.758;2022-08-07T06:59:08;30.00;77.20
11615;DHT22;5863;52.832;4.758;2022-08-07T07:01:37;30.40;76.30
11615;DHT22;5863;52.832;4.758;2022-08-07T07:04:04;30.60;75.30
11615;DHT22;5863;52.832;4.758;2022-08-07T07:06:32;30.70;74.90
11615;DHT22;5863;52.832;4.758;2022-08-07T07:09:23;30.90;73.90
11615;DHT22;5863;52.832;4.758;2022-08-07T07:11:59;31.20;73.10
11615;DHT22;5863;52.832;4.758;2022-08-07T07:14:40;31.20;72.60
11615;DHT22;5863;52.832;4.758;2022-08-07T07:17:19;31.40;72.10
11615;DHT22;5863;52.832;4.758;2022-08-07T07:19:51;31.50;70.40
11615;DHT22;5863;52.832;4.758;2022-08-07T07:22:20;31.50;70.40
11615;DHT22;5863;52.832;4.758;2022-08-07T07:24:50;31.70;69.10
11615;DHT22;5863;52.832;4.758;2022-08-07T07:27:20;31.70;68.70
11615;DHT22;5863;52.832;4.758;2022-08-07T07:29:51;31.80;68.90
11615;DHT22;5863;52.832;4.758;2022-08-07T07:32:23;31.80;68.20
11615;DHT22;5863;52.832;4.758;2022-08-07T07:34:53;32.00;67.10
11615;DHT22;5863;52.832;4.758;2022-08-07T07:37:22;32.10;67.10
11615;DHT22;5863;52.832;4.758;2022-08-07T07:39:59;32.30;66.30
11615;DHT22;5863;52.832;4.758;2022-08-07T07:42:27;32.30;66.10
11615;DHT22;5863;52.832;4.758;2022-08-07T07:44:59;32.40;66.40
11615;DHT22;5863;52.832;4.758;2022-08-07T07:47:28;32.40;66.20
11615;DHT22;5863;52.832;4.758;2022-08-07T07:49:56;32.50;65.90
11615;DHT22;5863;52.832;4.758;2022-08-07T07:52:24;32.60;65.90
11615;DHT22;5863;52.832;4.758;2022-08-07T07:54:53;32.70;65.20
11615;DHT22;5863;52.832;4.758;2022-08-07T07:57:22;32.70;64.60
11615;DHT22;5863;52.832;4.758;2022-08-07T07:59:50;32.80;64.00
11615;DHT22;5863;52.832;4.758;2022-08-07T08:02:19;32.60;64.50
11615;DHT22;5863;52.832;4.758;2022-08-07T08:04:47;32.60;63.40
11615;DHT22;5863;52.832;4.758;2022-08-07T08:07:14;32.70;63.00
11615;DHT22;5863;52.832;4.758;2022-08-07T08:09:42;32.70;63.40
11615;DHT22;5863;52.832;4.758;2022-08-07T08:12:10;32.60;63.30
11615;DHT22;5863;52.832;4.758;2022-08-07T08:14:38;32.60;63.60
11615;DHT22;5863;52.832;4.758;2022-08-07T08:17:08;32.30;63.30
11615;DHT22;5863;52.832;4.758;2022-08-07T08:19:38;32.00;63.20
11615;DHT22;5863;52.832;4.758;2022-08-07T08:22:06;31.50;64.20
11615;DHT22;5863;52.832;4.758;2022-08-07T08:24:51;30.90;64.90
11615;DHT22;5863;52.832;4.758;2022-08-07T08:27:39;30.40;64.80
11615;DHT22;5863;52.832;4.758;2022-08-07T08:30:09;29.90;66.90
11615;DHT22;5863;52.832;4.758;2022-08-07T08:32:39;29.60;67.70
11615;DHT22;5863;52.832;4.758;2022-08-07T08:35:10;29.10;69.00
11615;DHT22;5863;52.832;4.758;2022-08-07T08:37:38;28.80;70.00
11615;DHT22;5863;52.832;4.758;2022-08-07T08:40:12;28.60;70.30
11615;DHT22;5863;52.832;4.758;2022-08-07T08:42:44;28.30;71.00
11615;DHT22;5863;52.832;4.758;2022-08-07T08:45:18;28.00;72.40
11615;DHT22;5863;52.832;4.758;2022-08-07T08:48:02;27.70;72.80
11615;DHT22;5863;52.832;4.758;2022-08-07T08:50:36;27.40;73.60
11615;DHT22;5863;52.832;4.758;2022-08-07T08:53:08;27.30;73.90
11615;DHT22;5863;52.832;4.758;2022-08-07T08:55:40;27.10;73.90
11615;DHT22;5863;52.832;4.758;2022-08-07T08:58:11;26.90;73.80
11615;DHT22;5863;52.832;4.758;2022-08-07T09:00:43;26.60;74.80
11615;DHT22;5863;52.832;4.758;2022-08-07T09:03:21;26.50;75.60
11615;DHT22;5863;52.832;4.758;2022-08-07T09:05:54;26.40;76.20
11615;DHT22;5863;52.832;4.758;2022-08-07T09:08:34;26.20;76.60
11615;DHT22;5863;52.832;4.758;2022-08-07T09:11:17;26.20;77.20
11615;DHT22;5863;52.832;4.758;2022-08-07T09:13:57;26.10;77.60
11615;DHT22;5863;52.832;4.758;2022-08-07T09:16:34;26.10;78.00
11615;DHT22;5863;52.832;4.758;2022-08-07T09:19:16;26.10;77.50
11615;DHT22;5863;52.832;4.758;2022-08-07T09:21:52;26.10;77.20
11615;DHT22;5863;52.832;4.758;2022-08-07T09:24:33;26.00;76.70
11615;DHT22;5863;52.832;4.758;2022-08-07T09:27:15;25.80;77.10
11615;DHT22;5863;52.832;4.758;2022-08-07T09:29:54;25.90;78.50
11615;DHT22;5863;52.832;4.758;2022-08-07T09:32:30;25.80;76.80
11615;DHT22;5863;52.832;4.758;2022-08-07T09:35:05;25.70;77.50
11615;DHT22;5863;52.832;4.758;2022-08-07T09:37:38;25.60;78.30
11615;DHT22;5863;52.832;4.758;2022-08-07T09:40:15;25.60;78.90
11615;DHT22;5863;52.832;4.758;2022-08-07T09:42:49;25.60;79.50
11615;DHT22;5863;52.832;4.758;2022-08-07T09:45:23;25.60;79.80
11615;DHT22;5863;52.832;4.758;2022-08-07T09:48:08;25.60;79.10
11615;DHT22;5863;52.832;4.758;2022-08-07T09:50:47;25.70;79.30
11615;DHT22;5863;52.832;4.758;2022-08-07T09:53:18;25.60;79.20
11615;DHT22;5863;52.832;4.758;2022-08-07T09:56:02;25.60;79.60
11615;DHT22;5863;52.832;4.758;2022-08-07T10:01:39;25.60;80.40
11615;DHT22;5863;52.832;4.758;2022-08-07T10:04:23;25.70;79.60
11615;DHT22;5863;52.832;4.758;2022-08-07T10:07:17;25.70;79.50
11615;DHT22;5863;52.832;4.758;2022-08-07T10:12:56;25.60;80.00
11615;DHT22;5863;52.832;4.758;2022-08-07T10:15:37;25.70;78.70
11615;DHT22;5863;52.832;4.758;2022-08-07T10:18:33;25.60;78.20
11615;DHT22;5863;52.832;4.758;2022-08-07T10:21:14;25.70;80.10
11615;DHT22;5863;52.832;4.758;2022-08-07T10:23:52;25.70;79.10
11615;DHT22;5863;52.832;4.758;2022-08-07T10:26:35;25.70;78.10
11615;DHT22;5863;52.832;4.758;2022-08-07T10:29:35;25.70;78.60
11615;DHT22;5863;52.832;4.758;2022-08-07T10:32:17;25.60;79.10
11615;DHT22;5863;52.832;4.758;2022-08-07T10:34:57;25.60;80.20
11615;DHT22;5863;52.832;4.758;2022-08-07T10:37:40;25.60;81.10
11615;DHT22;5863;52.832;4.758;2022-08-07T10:40:19;25.60;81.20
11615;DHT22;5863;52.832;4.758;2022-08-07T10:42:57;25.70;80.80
11615;DHT22;5863;52.832;4.758;2022-08-07T10:45:30;25.80;80.00
11615;DHT22;5863;52.832;4.758;2022-08-07T10:48:13;25.80;80.50
11615;DHT22;5863;52.832;4.758;2022-08-07T10:50:46;25.80;80.40
11615;DHT22;5863;52.832;4.758;2022-08-07T10:53:27;25.70;80.50
11615;DHT22;5863;52.832;4.758;2022-08-07T10:56:02;25.70;81.20
11615;DHT22;5863;52.832;4.758;2022-08-07T10:58:52;25.70;80.20
11615;DHT22;5863;52.832;4.758;2022-08-07T11:01:38;25.60;80.90
11615;DHT22;5863;52.832;4.758;2022-08-07T11:04:13;25.70;79.50
11615;DHT22;5863;52.832;4.758;2022-08-07T11:06:49;25.60;80.00
11615;DHT22;5863;52.832;4.758;2022-08-07T11:09:21;25.50;80.70
11615;DHT22;5863;52.832;4.758;2022-08-07T11:11:54;25.40;81.20
11615;DHT22;5863;52.832;4.758;2022-08-07T11:14:25;25.50;81.60
11615;DHT22;5863;52.832;4.758;2022-08-07T11:16:58;25.40;81.80
11615;DHT22;5863;52.832;4.758;2022-08-07T11:19:32;25.30;82.50
11615;DHT22;5863;52.832;4.758;2022-08-07T11:22:08;25.20;83.00
11615;DHT22;5863;52.832;4.758;2022-08-07T11:24:40;25.20;82.00
11615;DHT22;5863;52.832;4.758;2022-08-07T11:27:15;25.10;82.30
11615;DHT22;5863;52.832;4.758;2022-08-07T11:30:02;25.20;82.20
11615;DHT22;5863;52.832;4.758;2022-08-07T11:32:33;25.00;82.10
11615;DHT22;5863;52.832;4.758;2022-08-07T11:35:07;24.90;82.60
11615;DHT22;5863;52.832;4.758;2022-08-07T11:37:55;24.90;82.10
11615;DHT22;5863;52.832;4.758;2022-08-07T11:40:32;24.90;81.70
11615;DHT22;5863;52.832;4.758;2022-08-07T11:43:05;24.80;82.00
11615;DHT22;5863;52.832;4.758;2022-08-07T11:45:44;24.70;82.60
11615;DHT22;5863;52.832;4.758;2022-08-07T11:48:25;24.60;83.10
11615;DHT22;5863;52.832;4.758;2022-08-07T11:51:12;24.60;82.30
11615;DHT22;5863;52.832;4.758;2022-08-07T11:53:49;24.60;82.80
11615;DHT22;5863;52.832;4.758;2022-08-07T11:56:32;24.60;83.60
11615;DHT22;5863;52.832;4.758;2022-08-07T11:59:14;24.50;83.50
11615;DHT22;5863;52.832;4.758;2022-08-07T12:01:52;24.50;84.10
11615;DHT22;5863;52.832;4.758;2022-08-07T12:04:44;24.40;84.80
11615;DHT22;5863;52.832;4.758;2022-08-07T12:07:15;24.40;85.40
11615;DHT22;5863;52.832;4.758;2022-08-07T12:09:48;24.30;85.50
11615;DHT22;5863;52.832;4.758;2022-08-07T12:12:21;24.20;85.70
11615;DHT22;5863;52.832;4.758;2022-08-07T12:14:57;24.10;86.60
11615;DHT22;5863;52.832;4.758;2022-08-07T12:17:31;24.10;86.50
11615;DHT22;5863;52.832;4.758;2022-08-07T12:20:03;24.00;86.70
11615;DHT22;5863;52.832;4.758;2022-08-07T12:22:40;24.00;86.70
11615;DHT22;5863;52.832;4.758;2022-08-07T12:25:10;23.80;87.30
11615;DHT22;5863;52.832;4.758;2022-08-07T12:27:59;23.70;87.80
11615;DHT22;5863;52.832;4.758;2022-08-07T12:30:31;23.80;88.00
11615;DHT22;5863;52.832;4.758;2022-08-07T12:33:03;23.70;88.40
11615;DHT22;5863;52.832;4.758;2022-08-07T12:35:32;23.70;88.80
11615;DHT22;5863;52.832;4.758;2022-08-07T12:38:01;23.50;88.80
11615;DHT22;5863;52.832;4.758;2022-08-07T12:40:31;23.40;89.60
11615;DHT22;5863;52.832;4.758;2022-08-07T12:43:02;23.30;90.00
11615;DHT22;5863;52.832;4.758;2022-08-07T12:45:34;23.30;90.00
11615;DHT22;5863;52.832;4.758;2022-08-07T12:48:13;23.40;90.00
11615;DHT22;5863;52.832;4.758;2022-08-07T12:50:49;23.30;90.30
11615;DHT22;5863;52.832;4.758;2022-08-07T12:53:23;23.30;90.30
11615;DHT22;5863;52.832;4.758;2022-08-07T12:56:00;23.30;90.40
11615;DHT22;5863;52.832;4.758;2022-08-07T12:58:32;23.40;90.30
11615;DHT22;5863;52.832;4.758;2022-08-07T13:01:07;23.50;89.70
11615;DHT22;5863;52.832;4.758;2022-08-07T13:03:59;23.50;90.00
11615;DHT22;5863;52.832;4.758;2022-08-07T13:06:36;23.50;90.10
11615;DHT22;5863;52.832;4.758;2022-08-07T13:09:12;23.50;90.00
11615;DHT22;5863;52.832;4.758;2022-08-07T13:11:48;23.50;90.10
11615;DHT22;5863;52.832;4.758;2022-08-07T13:14:23;23.50;90.10
11615;DHT22;5863;52.832;4.758;2022-08-07T13:17:02;23.60;90.20
11615;DHT22;5863;52.832;4.758;2022-08-07T13:19:38;23.60;90.00
11615;DHT22;5863;52.832;4.758;2022-08-07T13:22:11;23.60;90.30
11615;DHT22;5863;52.832;4.758;2022-08-07T13:24:43;23.70;90.60
11615;DHT22;5863;52.832;4.758;2022-08-07T13:27:14;23.70;90.50
11615;DHT22;5863;52.832;4.758;2022-08-07T13:29:48;23.80;90.50
11615;DHT22;5863;52.832;4.758;2022-08-07T13:32:22;23.80;90.60
11615;DHT22;5863;52.832;4.758;2022-08-07T13:34:58;23.80;90.00
11615;DHT22;5863;52.832;4.758;2022-08-07T13:37:30;23.80;90.00
11615;DHT22;5863;52.832;4.758;2022-08-07T13:40:05;23.80;90.10
11615;DHT22;5863;52.832;4.758;2022-08-07T13:42:36;23.80;90.50
11615;DHT22;5863;52.832;4.758;2022-08-07T13:45:05;23.80;90.50
11615;DHT22;5863;52.832;4.758;2022-08-07T13:47:34;23.80;90.30
11615;DHT22;5863;52.832;4.758;2022-08-07T13:50:05;23.80;90.30
11615;DHT22;5863;52.832;4.758;2022-08-07T13:52:37;23.80;90.30
11615;DHT22;5863;52.832;4.758;2022-08-07T13:55:07;23.70;90.00
11615;DHT22;5863;52.832;4.758;2022-08-07T13:57:38;23.70;90.40
11615;DHT22;5863;52.832;4.758;2022-08-07T14:00:07;23.80;90.30
11615;DHT22;5863;52.832;4.758;2022-08-07T14:02:35;23.90;90.20
11615;DHT22;5863;52.832;4.758;2022-08-07T14:05:07;23.80;90.40
11615;DHT22;5863;52.832;4.758;2022-08-07T14:07:39;23.80;90.50
11615;DHT22;5863;52.832;4.758;2022-08-07T14:10:08;23.80;90.70
11615;DHT22;5863;52.832;4.758;2022-08-07T14:12:39;23.80;90.70
11615;DHT22;5863;52.832;4.758;2022-08-07T14:15:18;23.70;91.00
11615;DHT22;5863;52.832;4.758;2022-08-07T14:17:46;23.60;90.90
11615;DHT22;5863;52.832;4.758;2022-08-07T14:20:18;23.50;91.30
11615;DHT22;5863;52.832;4.758;2022-08-07T14:22:47;23.50;91.50
11615;DHT22;5863;52.832;4.758;2022-08-07T14:25:16;23.60;91.10
11615;DHT22;5863;52.832;4.758;2022-08-07T14:27:46;23.50;91.20
11615;DHT22;5863;52.832;4.758;2022-08-07T14:30:14;23.50;91.30
11615;DHT22;5863;52.832;4.758;2022-08-07T14:32:42;23.40;91.40
11615;DHT22;5863;52.832;4.758;2022-08-07T14:35:16;23.40;91.90
11615;DHT22;5863;52.832;4.758;2022-08-07T14:37:46;23.40;92.50
11615;DHT22;5863;52.832;4.758;2022-08-07T14:40:15;23.50;92.30
11615;DHT22;5863;52.832;4.758;2022-08-07T14:42:44;23.40;92.20
11615;DHT22;5863;52.832;4.758;2022-08-07T14:45:12;23.40;92.50
11615;DHT22;5863;52.832;4.758;2022-08-07T14:47:41;23.30;92.90
11615;DHT22;5863;52.832;4.758;2022-08-07T14:50:10;23.40;92.60
11615;DHT22;5863;52.832;4.758;2022-08-07T14:52:45;23.40;92.30
11615;DHT22;5863;52.832;4.758;2022-08-07T14:55:14;23.40;92.70
11615;DHT22;5863;52.832;4.758;2022-08-07T14:57:46;23.30;92.80
11615;DHT22;5863;52.832;4.758;2022-08-07T15:00:15;23.20;93.00
11615;DHT22;5863;52.832;4.758;2022-08-07T15:02:44;23.20;93.50
11615;DHT22;5863;52.832;4.758;2022-08-07T15:05:14;23.20;93.60
11615;DHT22;5863;52.832;4.758;2022-08-07T15:07:42;23.30;93.60
11615;DHT22;5863;52.832;4.758;2022-08-07T15:10:17;23.30;93.50
11615;DHT22;5863;52.832;4.758;2022-08-07T15:12:45;23.30;93.70
11615;DHT22;5863;52.832;4.758;2022-08-07T15:15:20;23.30;93.60
11615;DHT22;5863;52.832;4.758;2022-08-07T15:17:54;23.30;93.50
11615;DHT22;5863;52.832;4.758;2022-08-07T15:20:25;23.40;93.30
11615;DHT22;5863;52.832;4.758;2022-08-07T15:22:54;23.40;93.20
11615;DHT22;5863;52.832;4.758;2022-08-07T15:25:25;23.40;93.10
11615;DHT22;5863;52.832;4.758;2022-08-07T15:27:59;23.40;93.20
11615;DHT22;5863;52.832;4.758;2022-08-07T15:30:26;23.40;93.00
11615;DHT22;5863;52.832;4.758;2022-08-07T15:32:53;23.20;93.00
11615;DHT22;5863;52.832;4.758;2022-08-07T15:35:24;23.10;93.10
11615;DHT22;5863;52.832;4.758;2022-08-07T15:37:53;23.00;93.40
11615;DHT22;5863;52.832;4.758;2022-08-07T15:40:24;22.80;93.10
11615;DHT22;5863;52.832;4.758;2022-08-07T15:42:53;22.80;93.40
11615;DHT22;5863;52.832;4.758;2022-08-07T15:45:31;22.80;93.50
11615;DHT22;5863;52.832;4.758;2022-08-07T15:48:01;22.70;93.60
11615;DHT22;5863;52.832;4.758;2022-08-07T15:50:31;22.60;93.70
11615;DHT22;5863;52.832;4.758;2022-08-07T15:53:01;22.50;93.80
11615;DHT22;5863;52.832;4.758;2022-08-07T15:55:32;22.50;94.00
11615;DHT22;5863;52.832;4.758;2022-08-07T15:58:02;22.50;93.60
11615;DHT22;5863;52.832;4.758;2022-08-07T16:00:35;22.30;93.70
11615;DHT22;5863;52.832;4.758;2022-08-07T16:03:08;22.30;93.70
11615;DHT22;5863;52.832;4.758;2022-08-07T16:05:36;22.20;93.60
11615;DHT22;5863;52.832;4.758;2022-08-07T16:08:11;22.20;93.50
11615;DHT22;5863;52.832;4.758;2022-08-07T16:10:46;22.10;93.90
11615;DHT22;5863;52.832;4.758;2022-08-07T16:13:49;22.10;94.00
11615;DHT22;5863;52.832;4.758;2022-08-07T16:16:26;22.10;94.40
11615;DHT22;5863;52.832;4.758;2022-08-07T16:19:06;22.10;94.60
11615;DHT22;5863;52.832;4.758;2022-08-07T16:21:45;22.10;94.80